Time;durP1;ratioP1;P1;durP2;ratioP2;P2;SDS_P1;SDS_P2;PMS_P1;PMS_P2;Temp;Humidity;BMP_temperature;BMP_pressure;BME280_temperature;BME280_humidity;BME280_pressure;Samples;Min_cycle;Max_cycle;Signal;HPM_P1;HPM_P2
2022/07/02 00:01:49;;;;;;;;;7.00;5.33;;;;;19.94;39.57;101608.19;5012856;28;45308;-69
2022/07/02 00:04:20;;;;;;;;;5.67;5.67;;;;;20.14;39.62;101642.59;5013562;28;45580;-68
2022/07/02 00:06:47;;;;;;;;;6.33;6.33;;;;;19.84;39.90;101603.66;5013223;28;46289;-71
2022/07/02 00:09:13;;;;;;;;;5.00;5.00;;;;;20.07;40.99;101650.72;5014639;28;45339;-69
2022/07/02 00:11:40;;;;;;;;;9.33;7.33;;;;;20.00;41.13;101637.16;5015131;28;45422;-69
2022/07/02 00:14:06;;;;;;;;;21.00;17.00;;;;;20.05;41.50;101643.50;5016359;28;45417;-70
2022/07/02 00:16:32;;;;;;;;;7.25;7.00;;;;;19.88;41.63;101611.81;5015481;28;46249;-68
2022/07/02 00:18:58;;;;;;;;;3.67;3.67;;;;;20.09;41.63;101644.41;5015770;28;45509;-69
2022/07/02 00:21:24;;;;;;;;;5.33;5.00;;;;;20.00;41.95;101634.44;5016074;28;45363;-71
2022/07/02 00:23:50;;;;;;;;;3.67;3.67;;;;;19.93;41.91;101619.97;5016236;28;45564;-70
2022/07/02 00:26:19;;;;;;;;;8.33;5.67;;;;;20.07;42.02;101645.28;5015399;28;46347;-70
2022/07/02 00:28:50;;;;;;;;;5.00;3.00;;;;;20.07;41.96;101653.44;5015646;28;45442;-68
2022/07/02 00:31:16;;;;;;;;;4.00;3.33;;;;;19.97;42.05;101645.28;5015720;28;45365;-71
2022/07/02 00:33:44;;;;;;;;;8.67;5.00;;;;;20.02;42.05;101655.22;5015798;28;45387;-69
2022/07/02 00:36:21;;;;;;;;;3.67;3.67;;;;;20.00;42.11;101651.63;5015270;28;45582;-71
2022/07/02 00:38:47;;;;;;;;;5.00;4.67;;;;;19.95;42.23;101653.41;5015339;28;45463;-69
2022/07/02 00:41:13;;;;;;;;;28.00;22.00;;;;;19.84;42.74;101644.34;5015162;28;45494;-70
2022/07/02 00:43:38;;;;;;;;;4.00;4.00;;;;;19.77;43.43;101623.56;5015850;28;45503;-69
2022/07/02 00:46:05;;;;;;;;;10.75;8.25;;;;;19.80;43.60;101638.03;5014111;28;46274;-71
2022/07/02 00:48:30;;;;;;;;;5.67;4.00;;;;;19.64;44.99;101609.03;5015344;28;45465;-67
2022/07/02 00:50:55;;;;;;;;;3.00;3.00;;;;;19.65;45.20;101618.94;5016178;28;45756;-71
2022/07/02 00:53:21;;;;;;;;;6.00;4.00;;;;;19.60;45.47;101612.59;5015729;28;45216;-69
2022/07/02 00:55:55;;;;;;;;;5.33;3.67;;;;;19.68;45.98;101629.81;5015179;28;45520;-69
2022/07/02 00:58:20;;;;;;;;;6.00;4.50;;;;;19.66;46.30;101635.22;5015138;28;45511;-68
2022/07/02 01:00:45;;;;;;;;;5.00;5.00;;;;;19.60;46.78;101624.38;5015457;28;45395;-68
2022/07/02 01:03:12;;;;;;;;;6.33;4.67;;;;;19.52;47.07;101616.22;5015356;28;45401;-71
2022/07/02 01:05:37;;;;;;;;;7.67;5.67;;;;;19.56;46.97;101635.19;5015179;28;46086;-70
2022/07/02 01:10:48;;;;;;;;;5.00;5.00;;;;;19.49;46.97;101624.31;5015434;28;45353;-69
2022/07/02 01:13:14;;;;;;;;;3.33;3.33;;;;;19.43;47.50;101624.28;5015364;28;45527;-68
2022/07/02 01:15:40;;;;;;;;;4.00;4.00;;;;;19.30;47.53;101604.41;5014527;28;46218;-70
2022/07/02 01:18:06;;;;;;;;;4.67;4.00;;;;;19.39;47.95;101617.06;5014564;28;45421;-68
2022/07/02 01:20:31;;;;;;;;;4.00;4.00;;;;;19.16;48.04;101587.16;5015271;28;45676;-68
2022/07/02 01:22:56;;;;;;;;;5.00;5.00;;;;;19.25;48.36;101621.50;5015247;28;45573;-70
2022/07/02 01:25:22;;;;;;;;;7.00;7.00;;;;;19.25;48.58;101610.69;5014590;28;45348;-69
2022/07/02 01:27:48;;;;;;;;;5.00;4.00;;;;;19.33;48.81;101634.19;5014353;28;45505;-69
2022/07/02 01:30:13;;;;;;;;;4.33;2.33;;;;;19.29;48.96;101635.09;5014552;28;45364;-71
2022/07/02 01:32:38;;;;;;;;;4.67;4.00;;;;;18.90;49.21;101587.03;5014981;28;45424;-68
2022/07/02 01:35:06;;;;;;;;;5.00;3.00;;;;;19.14;49.70;101644.03;5014407;28;45348;-68
2022/07/02 01:37:31;;;;;;;;;4.00;4.00;;;;;19.13;49.50;101646.75;5021621;28;45515;-69
2022/07/02 01:39:57;;;;;;;;;2.00;2.00;;;;;18.98;49.78;101627.72;5014279;28;45413;-69
2022/07/02 01:42:22;;;;;;;;;4.00;4.00;;;;;19.04;49.89;101643.97;5015235;28;45479;-69
2022/07/02 01:44:48;;;;;;;;;3.00;2.67;;;;;18.99;50.38;101648.47;5014427;28;46086;-70
2022/07/02 01:47:14;;;;;;;;;5.00;4.00;;;;;19.01;49.96;101652.09;5014926;28;45496;-69
2022/07/02 01:49:40;;;;;;;;;6.00;5.00;;;;;18.88;49.68;101630.34;5014660;28;45445;-71
2022/07/02 01:52:06;;;;;;;;;5.00;4.00;;;;;18.55;50.50;101575.06;5015311;28;45400;-67
2022/07/02 01:54:33;;;;;;;;;3.00;3.00;;;;;18.95;50.49;101642.13;5014162;28;46208;-68
2022/07/02 01:56:59;;;;;;;;;4.00;4.00;;;;;18.92;50.64;101643.03;5014407;28;45549;-67
2022/07/02 01:59:25;;;;;;;;;3.00;3.00;;;;;18.62;50.51;101584.13;5014355;28;45502;-68
2022/07/02 02:01:50;;;;;;;;;5.00;3.67;;;;;18.94;50.47;101645.72;5014420;28;45272;-69
2022/07/02 02:04:16;;;;;;;;;6.33;4.67;;;;;18.77;50.38;101613.09;5014161;28;46350;-69
2022/07/02 02:06:41;;;;;;;;;3.00;2.00;;;;;18.83;50.48;101620.38;5014007;28;45423;-68
2022/07/02 02:09:07;;;;;;;;;3.33;2.67;;;;;18.76;50.67;101614.00;5012903;28;45702;-69
2022/07/02 02:11:33;;;;;;;;;5.33;5.33;;;;;18.89;50.53;101634.88;5011308;28;45667;-69
2022/07/02 02:13:59;;;;;;;;;3.00;2.00;;;;;18.91;50.40;101635.78;5013874;28;46155;-69
2022/07/02 02:16:25;;;;;;;;;4.33;3.00;;;;;18.84;50.92;101633.97;5014279;28;45644;-68
2022/07/02 02:18:51;;;;;;;;;3.33;3.00;;;;;18.91;50.88;101626.78;5014322;28;45542;-68
2022/07/02 02:21:16;;;;;;;;;5.33;4.00;;;;;18.70;51.10;101603.13;5013832;28;45495;-68
2022/07/02 02:23:42;;;;;;;;;4.00;4.00;;;;;18.86;51.09;101625.81;5013951;28;46322;-70
2022/07/02 02:26:07;;;;;;;;;4.33;4.33;;;;;18.71;50.86;101599.50;5013886;28;45497;-68
2022/07/02 02:28:32;;;;;;;;;4.00;3.67;;;;;18.84;50.66;101642.06;5014058;28;45765;-68
2022/07/02 02:30:57;;;;;;;;;5.67;4.67;;;;;18.84;51.03;101630.31;5013570;28;45643;-67
2022/07/02 02:33:23;;;;;;;;;5.33;5.33;;;;;18.66;51.01;101610.34;5012431;28;46921;-69
2022/07/02 02:35:48;;;;;;;;;5.00;3.67;;;;;18.78;50.91;101626.66;5013806;28;45590;-68
2022/07/02 02:38:14;;;;;;;;;4.00;4.00;;;;;18.72;51.09;101615.75;5013748;28;45442;-68
2022/07/02 02:40:39;;;;;;;;;5.33;4.33;;;;;18.78;51.37;101623.94;5020444;28;45334;-69
2022/07/02 02:43:04;;;;;;;;;5.00;5.00;;;;;18.37;51.06;101546.06;5013864;28;46237;-69
2022/07/02 02:45:30;;;;;;;;;6.00;4.33;;;;;18.81;51.25;101620.34;5013845;28;45288;-71
2022/07/02 02:47:55;;;;;;;;;5.00;4.33;;;;;18.67;50.94;101598.59;5013682;28;45286;-68
2022/07/02 02:50:20;;;;;;;;;5.00;5.00;;;;;18.80;51.16;101613.13;5013984;28;46331;-68
2022/07/02 02:52:46;;;;;;;;;9.33;4.00;;;;;18.80;51.11;101623.94;5013278;28;46263;-69
2022/07/02 02:55:11;;;;;;;;;35.75;32.50;;;;;18.73;51.24;101608.56;5013132;28;45248;-69
2022/07/02 02:57:37;;;;;;;;;8.00;7.00;;;;;18.67;51.34;101625.66;5013516;28;45573;-70
2022/07/02 03:00:03;;;;;;;;;6.00;4.67;;;;;18.64;51.35;101586.84;5014189;28;45342;-69
2022/07/02 03:02:28;;;;;;;;;5.00;5.00;;;;;18.59;51.29;101579.63;5013549;28;46025;-69
2022/07/02 03:04:54;;;;;;;;;5.50;4.00;;;;;18.74;51.29;101619.41;5013253;28;45557;-70
2022/07/02 03:07:19;;;;;;;;;5.00;5.00;;;;;18.68;51.71;101613.06;5013575;28;45525;-69
2022/07/02 03:09:44;;;;;;;;;6.00;5.00;;;;;18.56;51.66;101593.13;5013639;28;45581;-68
2022/07/02 03:12:11;;;;;;;;;3.67;3.67;;;;;18.73;51.40;101624.81;5013411;28;45548;-67
2022/07/02 03:14:36;;;;;;;;;6.33;4.00;;;;;18.73;51.31;101620.28;5013364;28;45496;-69
2022/07/02 03:17:01;;;;;;;;;5.00;5.00;;;;;18.45;51.05;101559.66;5008860;28;45573;-68
2022/07/02 03:19:27;;;;;;;;;4.33;4.33;;;;;18.75;51.13;101621.22;5013629;28;45445;-70
2022/07/02 03:21:52;;;;;;;;;6.00;6.00;;;;;18.40;51.11;101566.84;5013274;28;45419;-67
2022/07/02 03:24:17;;;;;;;;;6.67;4.33;;;;;18.77;51.07;101632.03;5013180;28;45383;-69
2022/07/02 03:26:43;;;;;;;;;3.00;3.00;;;;;18.66;51.25;101601.28;5013486;28;45496;-71
2022/07/02 03:29:08;;;;;;;;;11.33;6.00;;;;;18.63;51.09;101598.56;5013148;28;45524;-69
2022/07/02 03:31:33;;;;;;;;;6.00;6.00;;;;;18.71;50.95;101618.47;5011888;28;45514;-69
2022/07/02 03:33:59;;;;;;;;;6.00;5.67;;;;;18.77;51.04;101616.69;5013157;28;45422;-67
2022/07/02 03:36:24;;;;;;;;;5.00;5.00;;;;;18.54;51.37;101575.94;5013122;28;45399;-69
2022/07/02 03:38:50;;;;;;;;;7.33;6.00;;;;;18.48;51.08;101565.09;5013550;28;45412;-68
2022/07/02 03:41:15;;;;;;;;;4.00;4.00;;;;;18.79;51.39;101619.41;5012888;28;45576;-71
2022/07/02 03:43:41;;;;;;;;;6.33;5.33;;;;;18.79;51.12;101614.94;5016605;28;45360;-70
2022/07/02 03:46:06;;;;;;;;;5.00;5.00;;;;;18.75;51.09;101614.91;5016607;28;45464;-71
2022/07/02 03:48:31;;;;;;;;;11.00;6.67;;;;;18.48;50.90;101573.22;5016672;28;45576;-68
2022/07/02 03:50:56;;;;;;;;;7.00;6.00;;;;;18.71;51.12;101621.16;5016446;28;46022;-68
2022/07/02 03:53:22;;;;;;;;;5.33;5.33;;;;;18.69;51.08;101626.59;5016408;28;45284;-69
2022/07/02 03:55:47;;;;;;;;;9.00;7.00;;;;;18.70;50.85;101628.41;5016169;28;45380;-68
2022/07/02 03:58:13;;;;;;;;;4.75;4.75;;;;;18.56;50.38;101594.91;5016533;28;45454;-67
2022/07/02 04:00:38;;;;;;;;;8.33;6.00;;;;;18.51;50.49;101605.72;5016138;28;45291;-67
2022/07/02 04:03:03;;;;;;;;;9.67;9.00;;;;;18.58;50.26;101623.81;5016363;28;45482;-69
2022/07/02 04:05:29;;;;;;;;;13.00;8.67;;;;;18.57;50.21;101630.09;5016353;28;45482;-70
2022/07/02 04:07:54;;;;;;;;;9.33;8.33;;;;;18.49;50.27;101626.44;5016945;28;45504;-69
2022/07/02 04:10:19;;;;;;;;;7.00;5.33;;;;;18.46;50.17;101618.28;5019457;28;45481;-69
2022/07/02 04:12:45;;;;;;;;;10.00;10.00;;;;;18.41;50.30;101610.16;5016289;28;45444;-70
2022/07/02 04:15:10;;;;;;;;;9.00;7.25;;;;;18.32;49.88;101603.75;5016161;28;45957;-70
2022/07/02 04:17:36;;;;;;;;;8.33;8.33;;;;;18.43;50.19;101626.41;5016523;28;45730;-69
2022/07/02 04:20:01;;;;;;;;;10.25;8.75;;;;;17.98;50.37;101555.72;5015784;28;46228;-69
2022/07/02 04:22:28;;;;;;;;;11.00;7.75;;;;;18.32;50.56;101628.13;5015853;28;45545;-67
2022/07/02 04:24:54;;;;;;;;;11.25;9.25;;;;;18.27;50.44;101619.06;5016188;28;45521;-68
2022/07/02 04:27:19;;;;;;;;;8.25;7.50;;;;;18.28;50.60;101618.13;5016067;28;45560;-67
2022/07/02 04:29:44;;;;;;;;;10.33;8.33;;;;;18.32;50.75;101626.31;5015586;28;46618;-68
2022/07/02 04:32:10;;;;;;;;;11.00;8.50;;;;;18.32;50.71;101620.00;5015810;28;45351;-68
2022/07/02 04:34:35;;;;;;;;;11.50;8.50;;;;;18.37;51.22;101631.75;5015646;28;45611;-67
2022/07/02 04:37:00;;;;;;;;;10.00;9.00;;;;;18.26;50.84;101610.00;5016738;28;45354;-67
2022/07/02 04:39:26;;;;;;;;;6.00;6.00;;;;;18.20;50.88;101602.75;5015646;28;46049;-69
2022/07/02 04:41:51;;;;;;;;;9.50;7.75;;;;;18.39;51.05;101628.16;5015902;28;45575;-68
2022/07/02 04:44:17;;;;;;;;;9.75;9.00;;;;;18.42;51.01;101630.88;5016137;28;45484;-69
2022/07/02 04:46:43;;;;;;;;;10.00;8.00;;;;;18.42;51.08;101627.28;5015745;28;45484;-69
2022/07/02 04:49:08;;;;;;;;;7.50;7.25;;;;;18.39;51.18;101624.56;5015368;28;45474;-69
2022/07/02 04:51:33;;;;;;;;;11.33;7.00;;;;;18.48;51.07;101634.53;5015189;28;45413;-68
2022/07/02 04:53:59;;;;;;;;;12.75;11.00;;;;;18.33;50.97;101594.72;5014991;28;45402;-67
2022/07/02 04:56:27;;;;;;;;;7.75;7.75;;;;;18.39;50.93;101603.81;5015639;28;45307;-70
2022/07/02 04:58:52;;;;;;;;;10.33;8.33;;;;;18.37;51.38;101619.13;5015513;28;46175;-69
2022/07/02 05:01:17;;;;;;;;;9.25;8.25;;;;;17.59;51.70;101477.84;5015194;28;45468;-70
2022/07/02 05:03:43;;;;;;;;;5.00;5.00;;;;;18.40;51.35;101620.97;5015447;28;45605;-68
2022/07/02 05:06:08;;;;;;;;;7.67;7.67;;;;;18.43;51.50;101629.09;5015660;28;45466;-68
2022/07/02 05:08:33;;;;;;;;;8.33;8.33;;;;;18.37;51.46;101619.13;5014833;28;45414;-69
2022/07/02 05:10:59;;;;;;;;;11.00;9.67;;;;;18.31;51.38;101610.94;5015100;28;45425;-69
2022/07/02 05:13:24;;;;;;;;;8.25;8.00;;;;;18.49;51.53;101625.53;5012315;28;45454;-71
2022/07/02 05:15:50;;;;;;;;;11.33;10.00;;;;;18.48;51.31;101629.13;5013801;28;45513;-69
2022/07/02 05:18:15;;;;;;;;;12.75;9.75;;;;;18.48;51.71;101621.94;5014441;28;45396;-67
2022/07/02 05:20:41;;;;;;;;;8.75;8.25;;;;;18.52;51.69;101628.28;5015313;28;45333;-69
2022/07/02 05:23:08;;;;;;;;;9.00;9.00;;;;;18.50;51.32;101612.03;5014575;28;45506;-69
2022/07/02 05:25:33;;;;;;;;;12.25;10.00;;;;;18.67;50.85;101630.19;5015797;28;45519;-67
2022/07/02 05:27:58;;;;;;;;;15.25;12.00;;;;;18.34;50.80;101564.09;5014249;28;46058;-73
2022/07/02 05:30:24;;;;;;;;;11.00;8.50;;;;;18.53;49.87;101592.22;5014709;28;47034;-70
2022/07/02 05:32:49;;;;;;;;;10.00;8.50;;;;;18.73;49.83;101625.72;5014223;28;45356;-68
2022/07/02 05:35:14;;;;;;;;;11.75;11.00;;;;;18.73;49.81;101633.84;5014112;28;45411;-67
2022/07/02 05:37:40;;;;;;;;;7.25;7.25;;;;;18.69;49.85;101628.38;5013830;28;45419;-67
2022/07/02 05:40:06;;;;;;;;;14.25;9.25;;;;;18.59;49.69;101617.50;5011358;28;45540;-69
2022/07/02 05:42:31;;;;;;;;;8.50;8.50;;;;;18.72;50.03;101636.53;5013658;28;45455;-68
2022/07/02 05:44:57;;;;;;;;;7.75;7.75;;;;;18.75;49.67;101625.72;5018061;28;45399;-69
2022/07/02 05:47:22;;;;;;;;;7.75;7.75;;;;;18.76;49.80;101617.63;5013528;28;47203;-67
2022/07/02 05:49:48;;;;;;;;;8.00;7.75;;;;;18.79;49.79;101611.28;5012110;28;45441;-67
2022/07/02 05:52:17;;;;;;;;;15.75;12.25;;;;;18.62;49.05;101589.53;5013536;28;45522;-68
2022/07/02 05:54:42;;;;;;;;;9.75;9.25;;;;;18.77;48.75;101629.34;5013264;28;45640;-67
2022/07/02 05:57:09;;;;;;;;;21.75;14.50;;;;;18.86;48.96;101626.75;5013190;28;46066;-69
2022/07/02 05:59:36;;;;;;;;;12.50;10.75;;;;;18.80;48.71;101605.00;5013198;28;45375;-66
2022/07/02 06:02:02;;;;;;;;;14.00;10.75;;;;;18.73;48.70;101595.94;5013715;28;45545;-67
2022/07/02 06:04:27;;;;;;;;;13.75;9.75;;;;;18.94;48.84;101637.59;5011153;28;45608;-67
2022/07/02 06:09:36;;;;;;;;;10.25;10.25;;;;;18.76;48.47;101623.03;5012700;28;45329;-67
2022/07/02 06:12:01;;;;;;;;;9.75;9.75;;;;;18.37;48.81;101550.59;5013016;28;45374;-68
2022/07/02 06:14:27;;;;;;;;;12.75;12.75;;;;;18.84;48.85;101627.63;5013289;28;45429;-70
2022/07/02 06:16:52;;;;;;;;;11.00;11.00;;;;;18.85;49.03;101641.16;5012508;28;45452;-68
2022/07/02 06:19:17;;;;;;;;;16.25;12.75;;;;;18.94;49.17;101640.31;5011144;28;45477;-67
2022/07/02 06:21:43;;;;;;;;;21.75;18.75;;;;;19.02;48.78;101629.53;5012890;28;45501;-68
2022/07/02 06:24:09;;;;;;;;;55.50;44.00;;;;;19.09;48.40;101626.88;5012462;28;45426;-68
2022/07/02 06:26:35;;;;;;;;;10.25;9.75;;;;;19.01;48.02;101614.19;5013344;28;46412;-69
2022/07/02 06:29:00;;;;;;;;;9.25;8.75;;;;;19.08;48.10;101626.88;5011206;28;45259;-67
2022/07/02 06:31:25;;;;;;;;;9.00;9.00;;;;;19.18;48.04;101631.41;5010204;28;45538;-68
2022/07/02 06:33:51;;;;;;;;;12.75;10.25;;;;;19.20;47.53;101637.75;5013063;28;45542;-69
2022/07/02 06:36:21;;;;;;;;;10.75;10.50;;;;;18.74;47.65;101539.97;5013437;28;46047;-68
2022/07/02 06:38:46;;;;;;;;;9.33;7.33;;;;;19.28;47.56;101630.56;5013567;28;45490;-68
2022/07/02 06:43:55;;;;;;;;;13.00;10.25;;;;;19.46;47.19;101618.00;5013722;28;45387;-68
2022/07/02 06:46:21;;;;;;;;;9.25;9.25;;;;;19.24;46.74;101566.44;5012658;28;47115;-68
2022/07/02 06:48:46;;;;;;;;;13.25;8.50;;;;;19.68;46.73;101628.03;5013480;28;45387;-67
2022/07/02 06:51:11;;;;;;;;;11.50;7.50;;;;;19.77;46.26;101626.25;5012172;28;45606;-67
2022/07/02 06:53:37;;;;;;;;;10.75;9.50;;;;;19.49;45.76;101563.81;5013410;28;45419;-68
2022/07/02 06:56:02;;;;;;;;;13.00;10.00;;;;;19.62;45.74;101595.47;4993420;28;45435;-66
2022/07/02 06:58:27;;;;;;;;;7.00;6.00;;;;;19.79;45.04;101602.75;4992606;28;45501;-70
2022/07/02 07:00:52;;;;;;;;;7.00;6.00;;;;;20.02;44.49;101625.38;4992292;28;46295;-67
2022/07/02 07:03:18;;;;;;;;;6.00;6.00;;;;;19.93;43.90;101616.34;4989975;28;45620;-69
2022/07/02 07:05:46;;;;;;;;;8.33;7.33;;;;;19.69;43.71;101567.44;4990671;28;46281;-67
2022/07/02 07:08:12;;;;;;;;;3.67;3.67;;;;;19.96;43.41;101616.34;4990306;28;45578;-69
2022/07/02 07:10:37;;;;;;;;;4.33;4.33;;;;;19.95;43.33;101603.69;4992275;28;45451;-70
2022/07/02 07:13:02;;;;;;;;;6.00;6.00;;;;;20.11;43.56;101627.19;5008696;28;45442;-69
2022/07/02 07:15:28;;;;;;;;;6.00;5.00;;;;;19.99;43.78;101595.53;4991445;28;46315;-67
2022/07/02 07:17:54;;;;;;;;;6.33;6.00;;;;;20.13;42.98;101590.16;4993771;28;46123;-72
2022/07/02 07:20:26;;;;;;;;;4.33;4.33;;;;;20.14;42.46;101589.22;4997198;28;45425;-68
2022/07/02 07:22:53;;;;;;;;;7.67;5.00;;;;;20.41;41.58;101625.44;4995294;28;45634;-69
2022/07/02 07:25:19;;;;;;;;;2.00;2.00;;;;;20.47;41.61;101624.50;4995640;28;45419;-72
2022/07/02 07:27:44;;;;;;;;;2.67;2.67;;;;;20.36;40.91;101591.94;4994233;28;45357;-68
2022/07/02 07:30:10;;;;;;;;;4.00;4.00;;;;;20.52;40.78;101610.00;4988544;28;45822;-68
2022/07/02 07:32:36;;;;;;;;;2.00;2.00;;;;;20.37;40.41;101563.91;4986495;28;45863;-68
2022/07/02 07:35:01;;;;;;;;;6.67;3.00;;;;;20.61;40.88;101592.84;4993383;28;45438;-68
2022/07/02 07:37:26;;;;;;;;;3.33;3.00;;;;;20.64;40.28;101582.00;4994665;28;45497;-69
2022/07/02 07:39:52;;;;;;;;;3.00;3.00;;;;;20.92;40.47;101609.06;4996473;28;45794;-71
2022/07/02 07:42:17;;;;;;;;;2.00;2.00;;;;;20.95;39.86;101598.19;4994961;28;45558;-69
2022/07/02 07:44:42;;;;;;;;;3.00;3.00;;;;;21.20;39.93;101600.84;4993784;28;47716;-70
2022/07/02 07:47:08;;;;;;;;;3.67;3.67;;;;;21.04;39.32;101552.00;4993556;28;45726;-67
2022/07/02 07:49:33;;;;;;;;;2.00;2.00;;;;;21.32;38.94;101585.38;4997332;28;45439;-68
2022/07/02 07:51:59;;;;;;;;;5.00;2.33;;;;;21.62;38.85;101598.88;4994474;28;45420;-69
2022/07/02 07:54:24;;;;;;;;;2.00;2.00;;;;;21.74;37.72;101587.91;5001760;28;45450;-66
2022/07/02 07:56:50;;;;;;;;;1.67;0.00;;;;;21.97;37.59;101597.72;5023046;28;45496;-66
2022/07/02 07:59:15;;;;;;;;;3.00;2.00;;;;;22.12;37.87;101597.59;5019180;28;45412;-67
2022/07/02 08:01:41;;;;;;;;;2.00;2.00;;;;;22.27;37.01;101599.28;5015873;28;45397;-67
2022/07/02 08:04:06;;;;;;;;;2.00;2.00;;;;;22.34;37.11;101592.94;5016037;28;46227;-67
2022/07/02 08:06:31;;;;;;;;;17.67;12.33;;;;;22.40;37.16;101594.69;5016185;28;45482;-64
2022/07/02 08:08:57;;;;;;;;;3.67;3.67;;;;;22.45;36.80;101592.81;5015599;28;45421;-66
2022/07/02 08:11:23;;;;;;;;;3.00;3.00;;;;;22.49;36.40;101594.59;5015740;28;45306;-66
2022/07/02 08:13:48;;;;;;;;;4.00;4.00;;;;;22.56;35.88;101590.00;5015221;28;53341;-63
2022/07/02 08:16:13;;;;;;;;;2.33;2.33;;;;;22.56;35.60;101576.38;5015316;28;45387;-63
2022/07/02 08:18:39;;;;;;;;;3.00;2.00;;;;;22.63;35.43;101587.19;5016113;28;45520;-68
2022/07/02 08:21:04;;;;;;;;;2.00;2.00;;;;;22.63;35.66;101583.56;5015980;28;45484;-65
2022/07/02 08:23:30;;;;;;;;;1.00;1.00;;;;;22.71;35.21;101589.84;5015523;28;45368;-65
2022/07/02 08:25:56;;;;;;;;;3.33;2.00;;;;;22.53;35.38;101562.78;5013997;28;45403;-64
2022/07/02 08:28:22;;;;;;;;;1.33;1.00;;;;;22.10;35.29;101476.97;5014457;28;45374;-62
2022/07/02 08:30:47;;;;;;;;;3.33;1.67;;;;;22.61;35.19;101561.78;5015378;28;45556;-67
2022/07/02 08:33:15;;;;;;;;;2.00;0.67;;;;;22.79;34.86;101589.75;5015563;28;45469;-64
2022/07/02 08:35:42;;;;;;;;;3.00;1.67;;;;;22.83;34.85;101583.34;5015558;28;45467;-62
2022/07/02 08:38:07;;;;;;;;;2.00;0.00;;;;;22.80;34.71;101570.69;5015247;28;45344;-65
2022/07/02 08:40:33;;;;;;;;;1.00;1.00;;;;;22.97;34.78;101577.75;5015250;28;45350;-66
2022/07/02 08:42:59;;;;;;;;;2.00;2.00;;;;;22.84;34.91;101538.84;5014749;28;46346;-65
2022/07/02 08:45:29;;;;;;;;;2.00;2.00;;;;;22.79;34.43;101513.47;5014974;28;45283;-65
2022/07/02 08:47:57;;;;;;;;;1.00;1.00;;;;;22.94;34.48;101526.00;5015029;28;45371;-65
2022/07/02 08:50:23;;;;;;;;;3.00;1.67;;;;;23.33;34.17;101570.97;5015499;28;45426;-66
2022/07/02 08:52:50;;;;;;;;;1.00;1.00;;;;;23.38;33.91;101573.63;5014682;28;46200;-65
2022/07/02 08:55:17;;;;;;;;;2.33;2.33;;;;;23.21;33.16;101526.59;5014611;28;45489;-67
2022/07/02 08:57:44;;;;;;;;;1.00;1.00;;;;;23.51;33.27;101575.25;5014677;28;45613;-66
2022/07/02 09:00:10;;;;;;;;;1.00;1.00;;;;;23.47;33.19;101557.13;5014818;28;45616;-67
2022/07/02 09:02:36;;;;;;;;;3.00;3.00;;;;;23.65;33.24;101566.88;5014823;28;46102;-65
2022/07/02 09:05:03;;;;;;;;;1.00;1.00;;;;;23.66;33.06;101565.03;5014913;28;45339;-66
2022/07/02 09:07:29;;;;;;;;;2.00;2.00;;;;;23.59;32.89;101549.69;5015412;28;45287;-66
2022/07/02 09:09:57;;;;;;;;;8.67;7.00;;;;;23.74;32.97;101566.75;5015246;28;45613;-66
2022/07/02 09:12:23;;;;;;;;;1.00;1.00;;;;;23.75;32.23;101570.38;5014387;28;45394;-65
2022/07/02 09:14:49;;;;;;;;;2.00;2.00;;;;;23.83;33.05;101564.84;5014370;28;45581;-65
2022/07/02 09:17:15;;;;;;;;;1.00;1.00;;;;;23.91;32.04;101563.78;5014297;28;45405;-66
2022/07/02 09:19:40;;;;;;;;;1.00;1.00;;;;;23.97;31.85;101557.31;5014480;28;45513;-65
2022/07/02 09:22:07;;;;;;;;;1.00;1.00;;;;;24.00;32.55;101559.09;5014247;28;45715;-67
2022/07/02 09:24:34;;;;;;;;;2.00;1.33;;;;;24.13;32.21;101557.06;5014180;28;45245;-65
2022/07/02 09:27:10;;;;;;;;;5.00;2.00;;;;;24.14;31.88;101548.84;5014224;28;45595;-71
2022/07/02 09:29:47;;;;;;;;;1.33;1.33;;;;;24.20;31.47;101556.03;5014370;28;45310;-65
2022/07/02 09:32:14;;;;;;;;;6.33;6.33;;;;;24.26;32.17;101558.66;5013411;28;45485;-65
2022/07/02 09:34:57;;;;;;;;;1.00;1.00;;;;;24.20;31.26;101547.81;5013414;28;45478;-66
2022/07/02 09:37:25;;;;;;;;;1.00;1.00;;;;;24.25;31.51;101554.09;5014631;28;45504;-66
2022/07/02 09:39:52;;;;;;;;;2.00;2.00;;;;;24.14;31.84;101523.34;5013796;28;45416;-68
2022/07/02 09:42:25;;;;;;;;;1.00;1.00;;;;;24.25;31.46;101529.53;5013863;28;46010;-65
2022/07/02 09:44:51;;;;;;;;;0.00;0.00;;;;;24.23;30.38;101537.75;5013291;28;45384;-65
2022/07/02 09:47:17;;;;;;;;;1.67;1.67;;;;;24.21;30.85;101530.53;5012338;28;45320;-65
2022/07/02 09:49:49;;;;;;;;;2.00;2.00;;;;;24.38;30.79;101541.13;5013287;28;45484;-68
2022/07/02 09:52:16;;;;;;;;;1.33;1.33;;;;;24.38;30.41;101538.41;5013809;28;47247;-66
2022/07/02 09:54:42;;;;;;;;;1.33;1.00;;;;;24.39;31.02;101542.94;5013285;28;45405;-70
2022/07/02 09:57:09;;;;;;;;;0.00;0.00;;;;;24.34;30.32;101536.69;5013448;28;45602;-64
2022/07/02 09:59:36;;;;;;;;;0.00;0.00;;;;;24.13;30.72;101511.53;5014615;28;45582;-64
2022/07/02 10:02:02;;;;;;;;;0.67;0.67;;;;;24.32;30.70;101538.50;5013580;28;46119;-66
2022/07/02 10:04:32;;;;;;;;;1.00;1.00;;;;;24.25;30.31;101504.94;5013593;28;45346;-64
2022/07/02 10:06:59;;;;;;;;;1.33;1.33;;;;;24.47;30.78;101533.69;5014157;28;45390;-65
2022/07/02 10:09:25;;;;;;;;;3.00;0.33;;;;;24.45;30.20;101520.97;5013947;28;45214;-69
2022/07/02 10:11:51;;;;;;;;;3.67;1.00;;;;;24.62;30.41;101529.78;5012230;28;46814;-64
2022/07/02 10:14:20;;;;;;;;;2.67;1.00;;;;;24.61;30.07;101499.75;5013396;28;45409;-68
2022/07/02 10:16:50;;;;;;;;;1.00;1.00;;;;;24.81;30.00;101513.00;5013319;28;45629;-65
2022/07/02 10:19:17;;;;;;;;;3.00;2.00;;;;;24.68;29.37;101481.41;5013495;28;45448;-67
2022/07/02 10:21:42;;;;;;;;;0.33;0.33;;;;;24.88;29.21;101500.09;5013127;28;45488;-66
2022/07/02 10:24:09;;;;;;;;;5.33;5.00;;;;;24.86;29.36;101512.91;5013705;28;45641;-65
2022/07/02 10:26:34;;;;;;;;;3.00;2.00;;;;;24.76;28.92;101491.22;5013911;28;45416;-67
2022/07/02 10:29:03;;;;;;;;;1.00;1.00;;;;;24.79;29.61;101510.31;5013774;28;45537;-65
2022/07/02 10:31:37;;;;;;;;;1.00;1.00;;;;;24.69;29.41;101491.41;5013258;28;46117;-67
2022/07/02 10:34:45;;;;;;;;;1.00;1.00;;;;;24.71;28.86;101486.81;5011754;28;45468;-68
2022/07/02 10:37:11;;;;;;;;;3.00;2.00;;;;;24.64;29.46;101467.78;5012945;28;45501;-66
2022/07/02 10:39:39;;;;;;;;;2.00;2.00;;;;;24.84;29.00;101496.53;5013442;28;45450;-64
2022/07/02 10:42:04;;;;;;;;;2.67;2.00;;;;;24.76;29.00;101488.50;5012847;28;45513;-66
2022/07/02 10:44:44;;;;;;;;;1.00;1.00;;;;;24.73;28.80;101474.94;5012714;28;45469;-67
2022/07/02 10:47:25;;;;;;;;;2.00;2.00;;;;;24.86;29.84;101491.06;5012055;28;45358;-69
2022/07/02 10:49:58;;;;;;;;;2.00;0.00;;;;;24.82;28.74;101484.75;5013680;28;45546;-64
2022/07/02 10:52:46;;;;;;;;;2.00;1.33;;;;;24.84;28.72;101488.34;5006860;28;45472;-66
2022/07/02 10:55:12;;;;;;;;;0.33;0.33;;;;;24.82;28.83;101493.84;5010995;28;45424;-65
2022/07/02 10:57:39;;;;;;;;;4.00;2.00;;;;;24.72;29.35;101478.56;5012902;28;45795;-65
2022/07/02 11:00:06;;;;;;;;;2.33;2.33;;;;;24.71;28.90;101473.16;5013528;28;45771;-64
2022/07/02 11:02:35;;;;;;;;;0.00;0.00;;;;;24.72;28.47;101472.22;5012923;28;46210;-66
2022/07/02 11:05:10;;;;;;;;;1.00;1.00;;;;;24.79;28.60;101482.09;5012311;28;46217;-67
2022/07/02 11:07:43;;;;;;;;;0.00;0.00;;;;;24.62;28.54;101444.19;5012811;28;45472;-65
2022/07/02 11:10:09;;;;;;;;;3.00;2.00;;;;;24.76;29.47;101474.84;5012901;28;45440;-66
2022/07/02 11:12:49;;;;;;;;;3.00;1.00;;;;;24.81;28.98;101466.53;5012549;28;45382;-66
2022/07/02 11:15:18;;;;;;;;;1.00;1.00;;;;;24.59;29.33;101425.13;5012642;28;45402;-65
2022/07/02 11:17:50;;;;;;;;;1.00;1.00;;;;;24.80;28.79;101465.66;5012910;28;45576;-66
2022/07/02 11:20:22;;;;;;;;;1.00;1.00;;;;;24.88;29.34;101487.38;5007019;28;45730;-64
2022/07/02 11:22:48;;;;;;;;;2.33;2.33;;;;;24.89;29.73;101477.31;5010521;28;45433;-65
2022/07/02 11:25:13;;;;;;;;;3.00;1.00;;;;;24.55;29.13;101413.38;5012529;28;45584;-65
2022/07/02 11:27:39;;;;;;;;;1.00;1.00;;;;;24.82;29.08;101466.50;5012535;28;45518;-66
2022/07/02 11:30:04;;;;;;;;;0.00;0.00;;;;;24.90;29.07;101473.66;5012908;28;45661;-66